createdAt,value
2018-05-26T00:02:22.269Z,43.83
2018-05-26T00:04:49.785Z,43.37
2018-05-26T00:07:18.093Z,44.30
2018-05-26T00:09:45.682Z,44.50
2018-05-26T00:12:13.203Z,44.80
2018-05-26T00:14:40.804Z,45.60
2018-05-26T00:17:08.720Z,44.77
2018-05-26T00:19:36.243Z,44.10
2018-05-26T00:22:03.786Z,43.93
2018-05-26T00:24:31.329Z,45.03
2018-05-26T00:26:58.860Z,44.70
2018-05-26T00:29:26.726Z,43.90
2018-05-26T00:31:54.247Z,45.60
2018-05-26T00:34:21.740Z,45.60
2018-05-26T00:36:49.262Z,46.87
2018-05-26T00:39:17.564Z,48.63
2018-05-26T00:41:45.083Z,46.90
2018-05-26T00:44:12.621Z,46.73
2018-05-26T00:46:40.143Z,47.43
2018-05-26T00:49:07.678Z,48.40
2018-05-26T00:51:35.942Z,48.40
2018-05-26T00:54:03.462Z,49.20
2018-05-26T00:56:30.973Z,47.10
2018-05-26T00:58:58.789Z,47.50
2018-05-26T01:01:26.303Z,47.07
2018-05-26T01:03:54.691Z,47.60
2018-05-26T01:06:22.565Z,48.47
2018-05-26T01:08:50.109Z,47.30
2018-05-26T01:11:18.484Z,46.20
2018-05-26T01:13:46.238Z,48.63
2018-05-26T01:16:14.590Z,48.63
2018-05-26T01:18:43.043Z,48.37
2018-05-26T01:21:10.586Z,48.77
2018-05-26T01:23:38.123Z,46.60
2018-05-26T01:26:05.666Z,48.73
2018-05-26T01:28:33.595Z,47.50
2018-05-26T01:31:01.115Z,50.00
2018-05-26T01:33:29.380Z,49.87
2018-05-26T01:35:56.970Z,51.93
2018-05-26T01:38:24.504Z,50.50
2018-05-26T01:40:52.774Z,48.40
2018-05-26T01:43:21.049Z,51.30
2018-05-26T01:45:48.807Z,48.70
2018-05-26T01:48:17.085Z,49.13
2018-05-26T01:50:45.502Z,49.93
2018-05-26T01:53:13.629Z,50.20
2018-05-26T01:55:41.948Z,51.40
2018-05-26T01:58:09.729Z,50.13
2018-05-26T02:00:38.044Z,50.60
2018-05-26T02:03:05.547Z,50.57
2018-05-26T02:05:33.086Z,49.77
2018-05-26T02:08:00.682Z,51.80
2018-05-26T02:10:28.214Z,47.47
2018-05-26T02:12:56.167Z,50.20
2018-05-26T02:15:23.678Z,49.87
2018-05-26T02:17:52.024Z,49.60
2018-05-26T02:20:19.599Z,53.20
2018-05-26T02:22:47.514Z,52.50
2018-05-26T02:25:15.823Z,53.07
2018-05-26T02:27:43.668Z,52.07
2018-05-26T02:30:11.930Z,53.17
2018-05-26T02:32:39.441Z,52.53
2018-05-26T02:35:06.968Z,54.53
2018-05-26T02:37:34.491Z,53.70
2018-05-26T02:40:02.408Z,53.57
2018-05-26T02:42:29.916Z,55.30
2018-05-26T02:44:57.537Z,56.30
2018-05-26T02:47:25.057Z,54.27
2018-05-26T02:49:52.584Z,53.77
2018-05-26T02:52:20.538Z,55.83
2018-05-26T02:54:48.054Z,56.00
2018-05-26T02:57:15.793Z,54.10
2018-05-26T02:59:44.658Z,53.53
2018-05-26T03:02:12.166Z,53.83
2018-05-26T03:04:45.808Z,55.63
2018-05-26T03:07:19.153Z,55.53
2018-05-26T03:09:52.725Z,55.17
2018-05-26T03:12:25.827Z,54.63
2018-05-26T03:14:53.613Z,55.83
2018-05-26T03:30:44.967Z,53.70
2018-05-26T03:33:13.275Z,54.80
2018-05-26T03:35:41.563Z,53.60
2018-05-26T03:38:09.335Z,52.47
2018-05-26T03:40:37.252Z,54.60
2018-05-26T03:43:05.171Z,54.60
2018-05-26T03:45:32.711Z,52.13
2018-05-26T03:48:00.236Z,51.70
2018-05-26T03:50:27.761Z,54.37
2018-05-26T03:52:55.315Z,52.63
2018-05-26T03:55:35.432Z,52.53
2018-05-26T03:58:15.018Z,51.47
2018-05-26T04:00:42.527Z,50.20
2018-05-26T04:03:10.447Z,52.03
2018-05-26T04:05:38.284Z,50.23
2018-05-26T04:08:05.796Z,50.87
2018-05-26T04:10:33.299Z,50.17
2018-05-26T04:13:00.830Z,49.60
2018-05-26T04:15:28.450Z,48.33
2018-05-26T04:17:56.377Z,47.20
2018-05-26T04:20:24.279Z,49.77
2018-05-26T04:22:51.795Z,49.97
2018-05-26T04:25:19.784Z,50.47
2018-05-26T04:27:47.391Z,50.33
2018-05-26T04:30:15.311Z,48.97
2018-05-26T04:32:42.826Z,49.80
2018-05-26T04:35:11.119Z,50.57
2018-05-26T04:37:39.409Z,48.57
2018-05-26T04:40:07.019Z,48.50
2018-05-26T04:42:34.859Z,48.50
2018-05-26T04:45:02.754Z,46.80
2018-05-26T04:47:30.263Z,48.63
2018-05-26T04:49:58.539Z,47.63
2018-05-26T04:52:26.576Z,47.13
2018-05-26T04:54:54.940Z,46.13
2018-05-26T04:57:22.474Z,45.90
2018-05-26T04:59:49.974Z,44.83
2018-05-26T05:02:18.251Z,43.40
2018-05-26T05:04:46.265Z,43.93
2018-05-26T05:07:13.763Z,42.60
2018-05-26T05:09:41.659Z,42.83
2018-05-26T05:12:09.196Z,39.87
2018-05-26T05:14:37.231Z,39.10
2018-05-26T05:17:04.917Z,37.93
2018-05-26T05:19:33.544Z,37.30
2018-05-26T05:22:01.086Z,36.37
2018-05-26T05:24:28.999Z,37.03
2018-05-26T05:26:56.867Z,36.87
2018-05-26T05:29:24.370Z,35.90
2018-05-26T05:31:52.722Z,37.00
2018-05-26T05:34:20.671Z,34.83
2018-05-26T05:36:48.178Z,35.97
2018-05-26T05:39:16.454Z,36.03
2018-05-26T05:41:44.007Z,37.03
2018-05-26T05:44:11.922Z,37.50
2018-05-26T05:46:39.427Z,36.70
2018-05-26T05:49:07.849Z,36.40
2018-05-26T05:51:35.346Z,36.00
2018-05-26T05:54:02.875Z,38.70
2018-05-26T05:56:30.429Z,36.63
2018-05-26T05:58:57.999Z,37.67
2018-05-26T06:01:25.519Z,37.80
2018-05-26T06:03:53.036Z,37.70
2018-05-26T06:06:20.585Z,35.20
2018-05-26T06:08:48.108Z,38.00
2018-05-26T06:11:15.644Z,35.30
2018-05-26T06:13:43.163Z,38.77
2018-05-26T06:16:11.466Z,35.70
2018-05-26T06:18:40.014Z,36.03
2018-05-26T06:21:07.504Z,36.10
2018-05-26T06:23:35.780Z,35.67
2018-05-26T06:26:03.668Z,36.30
2018-05-26T06:28:31.260Z,34.77
2018-05-26T06:30:58.801Z,36.13
2018-05-26T06:33:27.048Z,36.13
2018-05-26T06:35:55.405Z,34.87
2018-05-26T06:38:23.089Z,34.03
2018-05-26T06:40:51.564Z,35.40
2018-05-26T06:43:19.044Z,34.00
2018-05-26T06:45:46.518Z,32.10
2018-05-26T06:48:14.009Z,30.50
2018-05-26T06:50:41.495Z,29.70
2018-05-26T06:53:09.769Z,30.07
2018-05-26T06:55:38.366Z,29.87
2018-05-26T06:58:06.614Z,29.47
2018-05-26T07:00:34.103Z,29.83
2018-05-26T07:03:01.594Z,28.83
2018-05-26T07:05:29.066Z,28.20
2018-05-26T07:07:59.299Z,29.80
2018-05-26T07:10:27.894Z,30.07
2018-05-26T07:12:56.147Z,28.70
2018-05-26T07:15:23.642Z,27.83
2018-05-26T07:17:52.315Z,25.83
2018-05-26T07:20:20.680Z,26.97
2018-05-26T07:22:48.154Z,26.67
2018-05-26T07:25:16.035Z,25.10
2018-05-26T07:27:43.559Z,24.17
2018-05-26T07:30:11.093Z,24.63
2018-05-26T07:32:38.899Z,23.70
2018-05-26T07:35:07.152Z,25.30
2018-05-26T07:37:35.063Z,23.43
2018-05-26T07:40:02.601Z,23.97
2018-05-26T07:42:31.016Z,24.00
2018-05-26T07:44:58.536Z,23.67
2018-05-26T07:47:26.814Z,23.47
2018-05-26T07:49:55.744Z,22.20
2018-05-26T07:52:23.606Z,22.37
2018-05-26T07:54:51.123Z,23.30
2018-05-26T07:57:19.478Z,23.20
2018-05-26T07:59:46.970Z,23.60
2018-05-26T08:02:15.364Z,24.50
2018-05-26T08:04:42.902Z,25.80
2018-05-26T08:07:11.432Z,22.73
2018-05-26T08:09:40.594Z,21.47
2018-05-26T08:12:08.083Z,22.33
2018-05-26T08:14:36.522Z,21.20
2018-05-26T08:17:04.049Z,22.17
2018-05-26T08:19:31.535Z,22.90
2018-05-26T08:21:59.794Z,21.30
2018-05-26T08:24:28.081Z,21.10
2018-05-26T08:26:55.625Z,19.50
2018-05-26T08:29:23.122Z,21.27
2018-05-26T08:31:50.673Z,18.20
2018-05-26T08:34:18.178Z,19.30
2018-05-26T08:36:45.674Z,20.37
2018-05-26T08:39:14.042Z,19.60
2018-05-26T08:41:42.320Z,19.50
2018-05-26T08:44:10.591Z,18.90
2018-05-26T08:46:38.195Z,20.53
2018-05-26T08:49:05.858Z,18.30
2018-05-26T08:51:33.379Z,18.73
2018-05-26T08:54:00.899Z,17.73
2018-05-26T08:56:28.419Z,16.37
2018-05-26T08:58:55.996Z,15.57
2018-05-26T09:04:27.330Z,17.00
2018-05-26T09:06:55.689Z,16.63
2018-05-26T09:09:24.002Z,15.93
2018-05-26T09:11:51.592Z,15.70
2018-05-26T09:14:19.165Z,14.30
2018-05-26T09:16:46.710Z,13.00
2018-05-26T09:19:14.251Z,13.60
2018-05-26T09:21:41.823Z,15.10
2018-05-26T09:26:43.707Z,15.10
2018-05-26T09:29:12.202Z,14.23
2018-05-26T09:31:39.689Z,15.57
2018-05-26T09:34:07.440Z,11.00
2018-05-26T09:36:36.063Z,11.80
2018-05-26T09:39:03.562Z,11.00
2018-05-26T09:41:31.131Z,10.13
2018-05-26T09:43:59.412Z,12.07
2018-05-26T09:46:27.717Z,10.23
2018-05-26T09:48:55.571Z,8.97
2018-05-26T09:51:23.092Z,10.47
2018-05-26T09:53:51.629Z,10.73
2018-05-26T09:56:19.141Z,10.13
2018-05-26T09:58:47.836Z,10.40
2018-05-26T10:01:16.297Z,10.90
2018-05-26T10:03:44.610Z,10.17
2018-05-26T10:06:12.146Z,11.37
2018-05-26T10:08:39.668Z,10.63
2018-05-26T10:11:07.192Z,11.10
2018-05-26T10:13:34.691Z,9.90
2018-05-26T10:16:02.211Z,9.90
2018-05-26T10:18:29.765Z,10.47
2018-05-26T10:20:57.251Z,11.03
2018-05-26T10:23:24.783Z,10.93
2018-05-26T10:25:52.315Z,10.87
2018-05-26T10:28:19.862Z,9.20
2018-05-26T10:30:48.212Z,10.13
2018-05-26T10:33:15.735Z,10.23
2018-05-26T10:35:43.244Z,9.27
2018-05-26T10:38:12.316Z,9.73
2018-05-26T10:40:39.964Z,11.60
2018-05-26T10:43:07.465Z,10.30
2018-05-26T10:45:39.502Z,10.23
2018-05-26T10:48:07.024Z,10.20
2018-05-26T10:50:34.544Z,10.93
2018-05-26T10:53:02.081Z,9.37
2018-05-26T10:55:30.430Z,9.70
2018-05-26T10:57:58.405Z,10.43
2018-05-26T11:00:25.946Z,11.30
2018-05-26T11:02:53.516Z,11.03
2018-05-26T11:05:21.248Z,11.03
2018-05-26T11:07:48.814Z,10.80
2018-05-26T11:10:16.369Z,9.73
2018-05-26T11:12:44.512Z,9.33
2018-05-26T11:15:12.743Z,14.17
2018-05-26T11:17:40.351Z,14.83
2018-05-26T11:20:08.637Z,16.93
2018-05-26T11:22:36.154Z,17.50
2018-05-26T11:25:04.512Z,15.13
2018-05-26T11:27:31.990Z,16.03
2018-05-26T11:29:59.932Z,16.03
2018-05-26T11:32:27.455Z,16.60
2018-05-26T11:34:55.049Z,19.30
2018-05-26T11:37:23.014Z,17.17
2018-05-26T11:39:51.211Z,16.83
2018-05-26T11:42:18.819Z,17.13
2018-05-26T11:44:46.337Z,19.00
2018-05-26T11:47:13.945Z,18.33
2018-05-26T11:49:41.446Z,16.77
2018-05-26T11:52:09.072Z,20.70
2018-05-26T11:54:36.720Z,16.97
2018-05-26T11:57:04.317Z,16.17
2018-05-26T11:59:31.838Z,16.67
2018-05-26T12:01:59.361Z,18.33
2018-05-26T12:04:26.850Z,17.07
2018-05-26T12:06:54.397Z,19.30
2018-05-26T12:09:22.672Z,17.10
2018-05-26T12:11:50.942Z,17.53
2018-05-26T12:14:19.208Z,16.10
2018-05-26T12:16:46.787Z,15.53
2018-05-26T12:19:14.311Z,14.97
2018-05-26T12:21:42.935Z,17.37
2018-05-26T12:24:10.452Z,18.67
2018-05-26T12:26:37.973Z,18.07
2018-05-26T12:29:05.506Z,18.70
2018-05-26T12:31:33.020Z,17.97
2018-05-26T12:34:00.563Z,15.27
2018-05-26T12:36:28.073Z,14.83
2018-05-26T12:38:56.333Z,16.40
2018-05-26T12:41:23.860Z,16.50
2018-05-26T12:43:51.368Z,16.27
2018-05-26T12:46:19.689Z,16.70
2018-05-26T12:48:47.185Z,18.03
2018-05-26T12:51:14.707Z,15.33
2018-05-26T12:53:42.215Z,17.20
2018-05-26T12:56:10.463Z,16.37
2018-05-26T12:58:37.971Z,16.07
2018-05-26T13:01:05.469Z,15.30
2018-05-26T13:03:32.973Z,14.87
2018-05-26T13:06:00.463Z,15.77
2018-05-26T13:08:27.968Z,15.00
2018-05-26T13:10:56.263Z,15.83
2018-05-26T13:13:23.806Z,13.67
2018-05-26T13:15:52.148Z,16.33
2018-05-26T13:18:19.639Z,15.13
2018-05-26T13:20:47.190Z,13.77
2018-05-26T13:23:15.486Z,15.70
2018-05-26T13:25:42.998Z,12.77
2018-05-26T13:28:10.492Z,11.20
2018-05-26T13:30:38.772Z,12.73
2018-05-26T13:33:07.035Z,13.97
2018-05-26T13:35:34.595Z,13.90
2018-05-26T13:38:02.858Z,13.23
2018-05-26T13:40:31.115Z,13.10
2018-05-26T13:42:58.608Z,13.63
2018-05-26T13:45:26.860Z,12.30
2018-05-26T13:47:54.373Z,15.13
2018-05-26T13:50:21.877Z,14.57
2018-05-26T13:52:50.171Z,12.70
2018-05-26T13:55:18.486Z,13.10
2018-05-26T13:57:46.727Z,12.83
2018-05-26T14:00:14.230Z,13.73
2018-05-26T14:02:41.750Z,13.00
2018-05-26T14:05:09.279Z,13.17
2018-05-26T14:07:37.123Z,12.63
2018-05-26T14:10:05.575Z,12.90
2018-05-26T14:12:33.846Z,13.43
2018-05-26T14:15:01.472Z,12.97
2018-05-26T14:17:29.289Z,16.87
2018-05-26T14:19:57.756Z,13.83
2018-05-26T14:22:26.728Z,12.60
2018-05-26T14:24:54.220Z,14.27
2018-05-26T14:27:21.719Z,12.77
2018-05-26T14:29:49.962Z,12.17
2018-05-26T14:32:17.475Z,12.47
2018-05-26T14:34:44.960Z,8.13
2018-05-26T14:37:12.455Z,6.57
2018-05-26T14:39:39.947Z,6.13
2018-05-26T14:42:07.439Z,6.30
2018-05-26T14:44:35.015Z,6.20
2018-05-26T14:47:02.493Z,6.10
2018-05-26T14:49:30.752Z,6.27
2018-05-26T14:51:58.236Z,6.20
2018-05-26T14:54:26.508Z,5.53
2018-05-26T14:56:54.078Z,6.53
2018-05-26T14:59:21.562Z,6.60
2018-05-26T15:01:49.036Z,6.77
2018-05-26T15:04:16.533Z,5.10
2018-05-26T15:06:44.786Z,5.97
2018-05-26T15:09:12.335Z,5.63
2018-05-26T15:11:39.835Z,5.23
2018-05-26T15:14:07.312Z,5.97
2018-05-26T15:16:34.803Z,5.20
2018-05-26T15:19:02.304Z,5.30
2018-05-26T15:21:30.569Z,5.70
2018-05-26T15:23:58.832Z,5.47
2018-05-26T15:26:26.321Z,6.37
2018-05-26T15:28:53.954Z,5.87
2018-05-26T15:31:22.212Z,5.73
2018-05-26T15:33:50.497Z,5.93
2018-05-26T15:36:18.772Z,6.00
2018-05-26T15:38:47.047Z,6.47
2018-05-26T15:41:14.567Z,6.43
2018-05-26T15:43:42.064Z,6.77
2018-05-26T15:46:10.353Z,6.30
2018-05-26T15:48:38.619Z,5.67
2018-05-26T15:51:06.102Z,6.40
2018-05-26T15:53:33.608Z,6.83
2018-05-26T15:56:01.242Z,6.87
2018-05-26T15:58:28.759Z,7.57
2018-05-26T16:00:57.023Z,5.83
2018-05-26T16:03:24.816Z,6.43
2018-05-26T16:05:52.308Z,6.00
2018-05-26T16:08:19.782Z,6.63
2018-05-26T16:10:47.275Z,6.30
2018-05-26T16:13:14.782Z,5.60
2018-05-26T16:15:42.919Z,6.50
2018-05-26T16:18:10.767Z,6.47
2018-05-26T16:20:39.002Z,6.33
2018-05-26T16:23:06.491Z,6.10
2018-05-26T16:25:34.812Z,5.40
2018-05-26T16:28:02.296Z,6.00
2018-05-26T16:30:29.776Z,6.13
2018-05-26T16:32:58.517Z,6.10
2018-05-26T16:35:25.978Z,6.37
2018-05-26T16:37:53.466Z,6.13
2018-05-26T16:40:22.070Z,5.90
2018-05-26T16:42:50.334Z,6.40
2018-05-26T16:45:18.625Z,5.77
2018-05-26T16:47:46.882Z,6.40
2018-05-26T16:50:15.135Z,6.33
2018-05-26T16:52:42.621Z,5.77
2018-05-26T16:55:10.146Z,6.40
2018-05-26T16:57:37.634Z,5.57
2018-05-26T17:00:06.614Z,5.93
2018-05-26T17:02:34.105Z,6.70
2018-05-26T17:05:01.626Z,5.70
2018-05-26T17:07:29.127Z,6.97
2018-05-26T17:09:56.627Z,8.20
2018-05-26T17:12:24.126Z,6.00
2018-05-26T17:14:51.606Z,6.53
2018-05-26T17:17:19.143Z,6.63
2018-05-26T17:19:46.645Z,5.40
2018-05-26T17:22:14.130Z,7.00
2018-05-26T17:24:41.631Z,6.67
2018-05-26T17:27:09.103Z,6.53
2018-05-26T17:29:36.600Z,6.73
2018-05-26T17:32:04.362Z,6.10
2018-05-26T17:34:31.850Z,6.17
2018-05-26T17:36:59.326Z,6.30
2018-05-26T17:39:26.832Z,6.87
2018-05-26T17:41:55.125Z,6.20
2018-05-26T17:44:23.386Z,5.57
2018-05-26T17:46:51.668Z,6.60
2018-05-26T17:49:23.706Z,6.83
2018-05-26T17:51:51.497Z,5.70
2018-05-26T17:54:19.819Z,7.27
2018-05-26T17:56:47.351Z,8.90
2018-05-26T17:59:14.826Z,5.70
2018-05-26T18:01:42.707Z,6.63
2018-05-26T18:04:10.186Z,6.53
2018-05-26T18:06:37.678Z,6.40
2018-05-26T18:09:05.924Z,6.70
2018-05-26T18:11:33.431Z,6.37
2018-05-26T18:14:00.921Z,6.17
2018-05-26T18:16:28.707Z,7.00
2018-05-26T18:18:56.970Z,6.67
2018-05-26T18:21:24.489Z,7.47
2018-05-26T18:23:51.968Z,7.73
2018-05-26T18:26:19.451Z,7.93
2018-05-26T18:28:47.731Z,7.20
2018-05-26T18:31:15.338Z,7.30
2018-05-26T18:33:42.811Z,7.27
2018-05-26T18:36:10.295Z,6.97
2018-05-26T18:38:37.774Z,7.03
2018-05-26T18:41:06.016Z,7.23
2018-05-26T18:43:33.501Z,7.97
2018-05-26T18:46:01.758Z,8.27
2018-05-26T18:48:30.754Z,9.20
2018-05-26T18:50:58.242Z,8.80
2018-05-26T18:53:25.742Z,7.80
2018-05-26T18:55:53.217Z,7.90
2018-05-26T18:58:20.999Z,7.20
2018-05-26T19:00:48.895Z,9.40
2018-05-26T19:03:16.795Z,9.00
2018-05-26T19:05:44.298Z,9.00
2018-05-26T19:08:12.630Z,10.87
2018-05-26T19:10:40.204Z,8.90
2018-05-26T19:13:07.986Z,8.70
2018-05-26T19:15:36.340Z,8.63
2018-05-26T19:18:03.833Z,8.77
2018-05-26T19:20:31.375Z,9.20
2018-05-26T19:22:58.867Z,9.20
2018-05-26T19:25:26.363Z,9.57
2018-05-26T19:27:54.054Z,9.27
2018-05-26T19:30:21.553Z,8.60
2018-05-26T19:32:49.071Z,8.90
2018-05-26T19:35:17.456Z,9.20
2018-05-26T19:37:45.344Z,9.40
2018-05-26T19:40:12.839Z,9.53
2018-05-26T19:42:40.531Z,11.37
2018-05-26T19:45:08.451Z,9.77
2018-05-26T19:47:35.973Z,9.10
2018-05-26T19:50:03.495Z,9.33
2018-05-26T19:52:30.971Z,10.23
2018-05-26T19:54:58.868Z,9.73
2018-05-26T19:57:26.369Z,9.90
2018-05-26T19:59:53.925Z,10.80
2018-05-26T20:02:21.406Z,11.30
2018-05-26T20:04:50.136Z,11.27
2018-05-26T20:07:17.695Z,11.77
2018-05-26T20:09:45.191Z,12.50
2018-05-26T20:12:13.094Z,11.97
2018-05-26T20:14:40.599Z,11.83
2018-05-26T20:17:08.106Z,12.03
2018-05-26T20:19:35.616Z,11.67
2018-05-26T20:22:03.137Z,12.47
2018-05-26T20:24:30.634Z,11.17
2018-05-26T20:26:58.139Z,12.30
2018-05-26T20:29:25.638Z,12.77
2018-05-26T20:31:53.931Z,12.50
2018-05-26T20:34:21.426Z,14.07
2018-05-26T20:36:48.927Z,12.10
2018-05-26T20:39:16.451Z,14.43
2018-05-26T20:41:43.963Z,12.47
2018-05-26T20:44:11.489Z,15.43
2018-05-26T20:46:38.980Z,14.30
2018-05-26T20:49:07.265Z,16.67
2018-05-26T20:51:34.751Z,16.40
2018-05-26T20:54:02.254Z,16.03
2018-05-26T20:56:29.772Z,15.90
2018-05-26T20:58:57.277Z,14.70
2018-05-26T21:01:24.818Z,14.53
2018-05-26T21:03:52.338Z,14.87
2018-05-26T21:06:19.827Z,15.27
2018-05-26T21:08:47.316Z,15.07
2018-05-26T21:11:15.597Z,15.40
2018-05-26T21:13:43.080Z,15.77
2018-05-26T21:16:11.336Z,15.93
2018-05-26T21:18:38.832Z,15.13
2018-05-26T21:21:06.371Z,15.60
2018-05-26T21:23:34.598Z,14.70
2018-05-26T21:26:02.416Z,16.30
2018-05-26T21:28:30.020Z,16.20
2018-05-26T21:30:57.550Z,15.57
2018-05-26T21:33:25.054Z,15.90
2018-05-26T21:35:52.895Z,14.87
2018-05-26T21:38:21.194Z,15.17
2018-05-26T21:40:49.069Z,17.30
2018-05-26T21:43:16.586Z,16.83
2018-05-26T21:45:44.066Z,17.27
2018-05-26T21:48:12.660Z,16.63
2018-05-26T21:50:40.276Z,15.77
2018-05-26T21:53:07.755Z,15.20
2018-05-26T21:55:35.765Z,15.77
2018-05-26T21:58:03.317Z,14.60
2018-05-26T22:00:31.151Z,15.33
2018-05-26T22:02:59.051Z,17.43
2018-05-26T22:05:26.941Z,16.23
2018-05-26T22:07:54.812Z,15.83
2018-05-26T22:10:23.478Z,15.67
2018-05-26T22:12:51.759Z,15.03
2018-05-26T22:15:19.250Z,14.20
2018-05-26T22:17:46.741Z,14.20
2018-05-26T22:20:14.627Z,14.17
2018-05-26T22:22:42.571Z,14.43
2018-05-26T22:25:10.781Z,14.33
2018-05-26T22:27:38.310Z,13.50
2018-05-26T22:30:06.186Z,12.70
2018-05-26T22:32:34.077Z,12.47
2018-05-26T22:35:02.010Z,12.60
2018-05-26T22:37:29.949Z,11.77
2018-05-26T22:39:57.542Z,11.17
2018-05-26T22:42:25.803Z,11.30
2018-05-26T22:44:53.683Z,11.47
2018-05-26T22:47:22.197Z,10.80
2018-05-26T22:49:49.688Z,10.87
2018-05-26T22:52:17.602Z,11.00
2018-05-26T22:54:45.487Z,11.07
2018-05-26T22:57:13.368Z,11.97
2018-05-26T22:59:41.252Z,11.10
2018-05-26T23:02:09.887Z,10.70
2018-05-26T23:04:37.376Z,10.57
2018-05-26T23:07:04.900Z,11.20
2018-05-26T23:09:32.792Z,10.77
2018-05-26T23:12:00.282Z,10.93
2018-05-26T23:14:27.792Z,11.00
2018-05-26T23:16:55.308Z,10.57
2018-05-26T23:19:22.799Z,10.27
2018-05-26T23:21:50.292Z,10.70
2018-05-26T23:24:17.813Z,10.10
2018-05-26T23:26:46.063Z,12.23
2018-05-26T23:29:14.326Z,11.10
2018-05-26T23:31:42.163Z,10.53
2018-05-26T23:34:09.646Z,10.40
2018-05-26T23:36:37.913Z,10.83
2018-05-26T23:39:05.410Z,10.13
2018-05-26T23:41:33.668Z,10.30
2018-05-26T23:44:01.923Z,10.30
2018-05-26T23:46:30.198Z,10.43
2018-05-26T23:48:58.490Z,10.03
2018-05-26T23:51:26.770Z,10.33
2018-05-26T23:53:54.287Z,9.53
2018-05-26T23:56:21.786Z,9.53
2018-05-26T23:58:50.041Z,11.00
